Time;durP1;ratioP1;P1;durP2;ratioP2;P2;SDS_P1;SDS_P2;PMS_P1;PMS_P2;Temp;Humidity;BMP_temperature;BMP_pressure;BME280_temperature;BME280_humidity;BME280_pressure;Samples;Min_cycle;Max_cycle;Signal;HPM_P1;HPM_P2
2021/06/09 00:01:46;;;;;;;1.50;1.40;;;18.30;99.90;;;;;;4894788;29;20407;-89
2021/06/09 00:04:12;;;;;;;1.37;1.30;;;18.30;99.90;;;;;;4883062;29;20435;-89
2021/06/09 00:06:39;;;;;;;1.10;1.10;;;18.30;99.90;;;;;;4899778;29;20381;-90
2021/06/09 00:09:05;;;;;;;1.40;1.30;;;18.20;99.90;;;;;;4897919;29;20404;-88
2021/06/09 00:11:31;;;;;;;1.83;1.70;;;18.10;99.90;;;;;;4899099;29;20404;-88
2021/06/09 00:13:56;;;;;;;2.40;1.50;;;18.10;99.90;;;;;;4899240;29;20397;-90
2021/06/09 00:16:23;;;;;;;1.50;1.40;;;18.00;99.90;;;;;;4897543;29;20405;-90
2021/06/09 00:18:49;;;;;;;1.40;1.10;;;18.00;99.90;;;;;;4882937;29;20394;-86
2021/06/09 00:21:15;;;;;;;1.60;1.50;;;17.90;99.90;;;;;;4907512;29;20400;-90
2021/06/09 00:23:42;;;;;;;1.43;1.37;;;17.90;99.90;;;;;;4889556;29;20426;-82
2021/06/09 00:26:08;;;;;;;1.20;1.20;;;17.90;99.90;;;;;;4910829;29;20471;-82
2021/06/09 00:28:34;;;;;;;1.97;1.40;;;17.80;99.90;;;;;;4882103;29;20408;-86
2021/06/09 00:31:00;;;;;;;1.27;1.20;;;17.80;99.90;;;;;;4888745;29;20404;-80
2021/06/09 00:33:28;;;;;;;1.50;1.40;;;17.80;99.90;;;;;;4895120;29;20409;-89
2021/06/09 00:35:56;;;;;;;1.13;1.10;;;17.80;99.90;;;;;;4892065;29;20436;-85
2021/06/09 00:38:21;;;;;;;1.20;1.20;;;17.80;99.90;;;;;;4893420;29;20416;-87
2021/06/09 00:40:47;;;;;;;1.25;1.23;;;17.80;99.90;;;;;;4890639;29;20470;-85
2021/06/09 00:43:20;;;;;;;1.20;1.20;;;17.70;99.90;;;;;;4905228;29;20499;-86
2021/06/09 00:45:56;;;;;;;1.40;1.30;;;17.70;99.90;;;;;;4904956;29;20427;-85
2021/06/09 00:48:27;;;;;;;1.10;1.10;;;17.70;99.90;;;;;;4908237;29;20421;-88
2021/06/09 00:50:53;;;;;;;1.02;1.02;;;17.70;99.90;;;;;;4908211;29;20391;-88
2021/06/09 00:53:35;;;;;;;1.10;1.10;;;17.70;99.90;;;;;;4905465;29;20388;-86
2021/06/09 00:56:08;;;;;;;1.40;1.30;;;17.60;99.90;;;;;;4882104;29;20412;-89
2021/06/09 00:58:34;;;;;;;1.77;1.27;;;17.60;99.90;;;;;;4882152;29;20385;-86
2021/06/09 01:01:00;;;;;;;1.30;1.20;;;17.60;99.90;;;;;;4879833;29;20424;-89
2021/06/09 01:03:26;;;;;;;1.40;1.30;;;17.50;99.90;;;;;;4880695;29;20409;-89
2021/06/09 01:05:52;;;;;;;1.10;1.10;;;17.50;99.90;;;;;;4861804;29;20422;-81
2021/06/09 01:08:19;;;;;;;1.40;1.30;;;17.40;99.90;;;;;;4842729;29;20405;-79
2021/06/09 01:10:47;;;;;;;1.20;1.20;;;17.30;99.90;;;;;;4880736;29;20405;-85
2021/06/09 01:13:13;;;;;;;1.10;1.10;;;17.30;99.90;;;;;;4869088;29;20472;-83
2021/06/09 01:15:40;;;;;;;1.40;1.30;;;17.20;99.90;;;;;;4884524;29;20432;-82
2021/06/09 01:18:06;;;;;;;1.10;1.10;;;17.20;99.90;;;;;;4883180;29;21085;-83
2021/06/09 01:20:33;;;;;;;1.50;1.40;;;17.10;99.90;;;;;;4900511;29;20468;-82
2021/06/09 01:22:58;;;;;;;1.40;1.30;;;17.10;99.90;;;;;;4858365;29;20416;-80
2021/06/09 01:25:24;;;;;;;1.20;1.20;;;17.10;99.90;;;;;;4874529;29;20450;-82
2021/06/09 01:27:50;;;;;;;1.48;1.38;;;17.10;99.90;;;;;;4872333;29;20788;-81
2021/06/09 01:30:17;;;;;;;1.37;1.30;;;17.10;99.90;;;;;;4872928;29;20397;-80
2021/06/09 01:32:43;;;;;;;1.20;1.20;;;17.00;99.90;;;;;;4858713;29;20404;-81
2021/06/09 01:35:09;;;;;;;1.48;1.38;;;16.90;99.90;;;;;;4873465;29;20419;-80
2021/06/09 01:37:35;;;;;;;1.13;1.13;;;16.90;99.90;;;;;;4873577;29;20411;-81
2021/06/09 01:40:01;;;;;;;1.40;1.30;;;16.80;99.90;;;;;;4871932;29;20404;-78
2021/06/09 01:42:28;;;;;;;1.70;1.60;;;16.80;99.90;;;;;;4855342;29;20425;-79
2021/06/09 01:44:54;;;;;;;1.48;1.38;;;16.80;99.90;;;;;;4872146;29;20512;-81
2021/06/09 01:47:20;;;;;;;1.23;1.17;;;16.80;99.90;;;;;;4866561;29;20457;-80
2021/06/09 01:49:45;;;;;;;1.10;1.10;;;16.80;99.90;;;;;;4871956;29;20832;-79
2021/06/09 01:52:11;;;;;;;1.50;1.40;;;16.90;99.90;;;;;;4840610;29;20419;-79
2021/06/09 01:54:38;;;;;;;1.37;1.30;;;16.90;99.90;;;;;;4856600;29;20904;-79
2021/06/09 01:57:03;;;;;;;1.53;1.43;;;16.80;99.90;;;;;;4841161;29;20932;-80
2021/06/09 01:59:31;;;;;;;1.10;1.10;;;16.80;99.90;;;;;;4872973;29;20448;-79
2021/06/09 02:01:57;;;;;;;1.10;1.10;;;16.80;99.90;;;;;;4868336;29;20416;-79
2021/06/09 02:04:24;;;;;;;1.40;1.30;;;16.80;99.90;;;;;;4886846;29;20420;-80
2021/06/09 02:06:49;;;;;;;1.40;1.30;;;16.80;99.90;;;;;;4858124;29;20423;-79
2021/06/09 02:09:15;;;;;;;1.27;1.20;;;16.80;99.90;;;;;;4857298;29;20783;-79
2021/06/09 02:11:42;;;;;;;1.35;1.25;;;16.80;99.90;;;;;;4862336;29;20414;-79
2021/06/09 02:14:07;;;;;;;1.33;1.23;;;16.70;99.90;;;;;;4879933;29;20408;-80
2021/06/09 02:16:38;;;;;;;1.38;1.27;;;16.70;99.90;;;;;;4838412;29;20417;-82
2021/06/09 02:19:04;;;;;;;1.40;1.30;;;16.70;99.90;;;;;;4869202;29;20488;-82
2021/06/09 02:21:30;;;;;;;1.58;1.48;;;16.60;99.90;;;;;;4848265;29;20430;-81
2021/06/09 02:23:55;;;;;;;1.23;1.20;;;16.60;99.90;;;;;;4858449;29;20415;-89
2021/06/09 02:26:22;;;;;;;1.30;1.20;;;16.60;99.90;;;;;;4882611;29;20410;-82
2021/06/09 02:28:48;;;;;;;1.20;1.20;;;16.60;99.90;;;;;;4862787;29;20417;-81
2021/06/09 02:31:15;;;;;;;1.38;1.33;;;16.50;99.90;;;;;;4865455;29;20473;-82
2021/06/09 02:33:40;;;;;;;1.30;1.20;;;16.50;99.90;;;;;;4883384;29;20410;-89
2021/06/09 02:36:06;;;;;;;1.50;1.40;;;16.40;99.90;;;;;;4868919;29;20414;-84
2021/06/09 02:38:35;;;;;;;2.37;1.40;;;16.40;99.90;;;;;;4889476;29;20417;-85
2021/06/09 02:41:01;;;;;;;1.70;1.60;;;16.40;99.90;;;;;;4877231;29;20713;-84
2021/06/09 02:43:32;;;;;;;1.40;1.40;;;16.30;99.90;;;;;;4891365;29;20463;-82
2021/06/09 02:46:06;;;;;;;1.60;1.50;;;16.30;99.90;;;;;;4892686;29;20404;-82
2021/06/09 02:48:31;;;;;;;1.60;1.50;;;16.30;99.90;;;;;;4887237;29;20405;-82
2021/06/09 02:51:02;;;;;;;1.52;1.30;;;16.20;99.90;;;;;;4862639;29;20436;-89
2021/06/09 02:53:38;;;;;;;1.15;1.15;;;16.20;99.90;;;;;;4889877;29;21010;-81
2021/06/09 02:56:42;;;;;;;1.50;1.40;;;16.20;99.90;;;;;;4886711;29;20409;-83
2021/06/09 02:59:26;;;;;;;1.50;1.40;;;16.20;99.90;;;;;;4870230;29;20416;-84
2021/06/09 03:02:10;;;;;;;1.50;1.40;;;16.20;99.90;;;;;;4900353;29;20408;-84
2021/06/09 03:04:56;;;;;;;1.10;1.10;;;16.10;99.90;;;;;;4865125;29;20784;-82
2021/06/09 03:07:57;;;;;;;1.20;1.20;;;16.10;99.90;;;;;;4875860;29;20780;-82
2021/06/09 03:10:51;;;;;;;1.88;1.67;;;16.00;99.90;;;;;;4873507;29;20501;-90
2021/06/09 03:13:50;;;;;;;1.43;1.33;;;15.90;99.90;;;;;;4828427;29;20943;-79
2021/06/09 03:16:19;;;;;;;1.50;1.40;;;15.90;99.90;;;;;;4837988;29;20410;-81
2021/06/09 03:18:46;;;;;;;1.33;1.30;;;15.90;99.90;;;;;;4872823;29;20402;-80
2021/06/09 03:21:14;;;;;;;1.40;1.30;;;15.80;99.90;;;;;;4842261;29;20423;-80
2021/06/09 03:23:58;;;;;;;1.60;1.50;;;15.90;99.90;;;;;;4874452;29;20500;-80
2021/06/09 03:26:32;;;;;;;1.60;1.50;;;15.80;99.90;;;;;;4873211;29;21084;-78
2021/06/09 03:29:36;;;;;;;1.45;1.40;;;15.80;99.90;;;;;;4844183;29;20415;-80
2021/06/09 03:32:10;;;;;;;1.65;1.55;;;15.80;99.90;;;;;;4887338;29;20416;-80
2021/06/09 03:34:58;;;;;;;1.60;1.50;;;15.70;99.90;;;;;;4879576;29;20497;-80
2021/06/09 03:37:24;;;;;;;1.30;1.30;;;15.70;99.90;;;;;;4851437;29;20416;-79
2021/06/09 03:39:51;;;;;;;1.70;1.60;;;15.70;99.90;;;;;;4842729;29;20420;-79
2021/06/09 03:42:19;;;;;;;1.50;1.40;;;15.70;99.90;;;;;;4889070;29;21119;-80
2021/06/09 03:44:50;;;;;;;1.75;1.50;;;15.70;99.90;;;;;;4900718;29;20428;-83
2021/06/09 03:47:16;;;;;;;1.40;1.30;;;15.80;99.90;;;;;;4849736;29;20406;-81
2021/06/09 03:49:43;;;;;;;1.60;1.50;;;15.80;99.90;;;;;;4862866;29;20412;-82
2021/06/09 03:52:10;;;;;;;1.50;1.40;;;15.80;99.90;;;;;;4856544;29;20405;-83
2021/06/09 03:54:36;;;;;;;1.50;1.40;;;15.80;99.90;;;;;;4853137;29;20405;-84
2021/06/09 03:57:01;;;;;;;1.45;1.35;;;15.90;99.90;;;;;;4906869;29;20437;-87
2021/06/09 03:59:27;;;;;;;1.77;1.67;;;16.00;99.90;;;;;;4892189;29;20499;-82
2021/06/09 04:01:54;;;;;;;1.75;1.50;;;16.00;99.90;;;;;;4891502;29;20411;-89
2021/06/09 04:04:20;;;;;;;1.70;1.60;;;16.00;99.90;;;;;;4883776;29;20451;-89
2021/06/09 04:06:46;;;;;;;2.70;1.70;;;16.10;99.90;;;;;;4914398;29;20416;-90
2021/06/09 04:09:18;;;;;;;1.52;1.45;;;16.20;99.90;;;;;;4899883;29;20400;-88
2021/06/09 04:11:43;;;;;;;2.83;1.67;;;16.40;99.90;;;;;;4899311;29;20432;-90
2021/06/09 04:14:09;;;;;;;2.28;2.08;;;16.40;99.90;;;;;;4897645;29;20476;-90
2021/06/09 04:16:35;;;;;;;1.75;1.65;;;16.50;99.90;;;;;;4897437;29;20389;-89
2021/06/09 04:19:01;;;;;;;2.15;1.95;;;16.60;99.90;;;;;;4896445;29;20403;-87
2021/06/09 04:21:27;;;;;;;1.77;1.67;;;16.60;99.90;;;;;;4888337;29;20416;-85
2021/06/09 04:23:53;;;;;;;1.50;1.40;;;16.70;99.90;;;;;;4894686;29;20454;-89
2021/06/09 04:26:18;;;;;;;1.53;1.43;;;16.90;99.90;;;;;;4893904;29;20412;-84
2021/06/09 04:28:44;;;;;;;1.42;1.33;;;17.00;99.90;;;;;;4891440;29;20424;-85
2021/06/09 04:31:13;;;;;;;1.50;1.40;;;17.20;99.90;;;;;;4890965;29;20410;-87
2021/06/09 04:33:38;;;;;;;1.35;1.25;;;17.30;99.90;;;;;;4908173;29;20677;-90
2021/06/09 04:36:05;;;;;;;1.67;1.57;;;17.40;99.90;;;;;;4872508;29;20493;-79
2021/06/09 04:38:30;;;;;;;4.05;3.70;;;17.50;99.90;;;;;;4875114;29;20417;-79
2021/06/09 04:40:56;;;;;;;2.25;2.00;;;17.60;99.90;;;;;;4841271;29;20421;-77
2021/06/09 04:43:23;;;;;;;1.60;1.50;;;17.70;99.90;;;;;;4851784;29;21077;-77
2021/06/09 04:45:49;;;;;;;1.20;1.20;;;17.80;99.90;;;;;;4872010;29;20420;-79
2021/06/09 04:48:16;;;;;;;1.42;1.33;;;17.90;99.90;;;;;;4862154;29;20413;-78
2021/06/09 04:50:43;;;;;;;1.23;1.20;;;18.10;99.90;;;;;;4873502;29;20416;-80
2021/06/09 04:53:11;;;;;;;1.10;1.10;;;18.30;99.90;;;;;;4847120;29;20452;-82
2021/06/09 04:55:39;;;;;;;1.08;1.08;;;18.40;99.90;;;;;;4844212;29;20458;-79
2021/06/09 04:58:04;;;;;;;1.10;1.10;;;18.50;99.90;;;;;;4844019;29;20943;-81
2021/06/09 05:00:30;;;;;;;1.10;1.00;;;18.70;99.90;;;;;;4861401;29;20432;-82
2021/06/09 05:02:56;;;;;;;1.13;1.13;;;18.90;99.90;;;;;;4888651;29;21205;-84
2021/06/09 05:05:22;;;;;;;0.95;0.95;;;19.10;99.90;;;;;;4873674;29;20446;-83
2021/06/09 05:07:48;;;;;;;1.00;1.00;;;19.30;99.90;;;;;;4865199;29;20839;-82
2021/06/09 05:10:14;;;;;;;0.95;0.95;;;19.40;99.90;;;;;;4850183;29;20412;-83
2021/06/09 05:12:42;;;;;;;1.67;1.20;;;19.50;99.90;;;;;;4848769;29;20528;-78
2021/06/09 05:15:09;;;;;;;0.98;0.98;;;19.60;99.90;;;;;;4838462;29;20937;-78
2021/06/09 05:17:48;;;;;;;1.10;1.10;;;19.70;99.90;;;;;;4882568;29;20417;-78
2021/06/09 05:20:20;;;;;;;1.00;1.00;;;19.80;99.90;;;;;;4842170;29;20416;-80
2021/06/09 05:23:10;;;;;;;1.10;1.10;;;20.00;99.90;;;;;;4871413;29;20405;-79
2021/06/09 05:25:39;;;;;;;1.13;1.10;;;20.10;99.90;;;;;;4851765;29;20473;-79
2021/06/09 05:28:06;;;;;;;1.38;1.10;;;20.20;99.90;;;;;;4837459;29;20498;-79
2021/06/09 05:30:32;;;;;;;1.35;1.25;;;20.30;99.90;;;;;;4884895;29;20423;-79
2021/06/09 05:32:57;;;;;;;0.90;0.90;;;20.40;99.90;;;;;;4871059;29;20451;-79
2021/06/09 05:35:25;;;;;;;1.10;1.10;;;20.50;99.90;;;;;;4872011;29;20429;-79
2021/06/09 05:37:51;;;;;;;1.20;1.20;;;20.70;99.90;;;;;;4854368;29;20440;-79
2021/06/09 05:40:18;;;;;;;1.10;1.10;;;20.70;99.90;;;;;;4866660;29;20434;-79
2021/06/09 05:42:44;;;;;;;1.20;1.20;;;20.90;99.90;;;;;;4895334;29;20418;-81
2021/06/09 05:45:10;;;;;;;1.10;1.10;;;20.90;99.90;;;;;;4840196;29;20503;-79
2021/06/09 05:47:43;;;;;;;1.00;1.00;;;21.10;99.90;;;;;;4884323;29;20422;-78
2021/06/09 05:50:09;;;;;;;1.40;1.17;;;21.30;99.90;;;;;;4837597;29;20474;-77
2021/06/09 05:52:35;;;;;;;1.17;1.17;;;21.40;99.90;;;;;;4885298;29;20415;-78
2021/06/09 05:55:01;;;;;;;1.33;1.23;;;21.50;99.90;;;;;;4871574;29;20409;-79
2021/06/09 05:57:26;;;;;;;1.40;1.30;;;21.50;99.90;;;;;;4852343;29;20440;-77
2021/06/09 05:59:52;;;;;;;1.30;1.20;;;21.60;99.90;;;;;;4869780;29;20423;-79
2021/06/09 06:02:18;;;;;;;1.27;1.17;;;21.90;99.90;;;;;;4839777;29;21584;-78
2021/06/09 06:04:45;;;;;;;1.15;1.10;;;22.10;99.90;;;;;;4872597;29;20499;-79
2021/06/09 06:07:10;;;;;;;3.60;1.23;;;22.20;99.90;;;;;;4864569;29;20416;-78
2021/06/09 06:09:37;;;;;;;1.30;1.23;;;22.30;99.90;;;;;;4868193;29;20488;-78
2021/06/09 06:12:04;;;;;;;1.55;1.30;;;22.30;99.90;;;;;;4881147;29;20417;-77
2021/06/09 06:14:30;;;;;;;1.20;1.20;;;22.40;99.90;;;;;;4842478;29;20425;-78
2021/06/09 06:16:55;;;;;;;1.20;1.20;;;22.50;99.90;;;;;;4868152;29;20408;-80
2021/06/09 06:19:22;;;;;;;1.10;1.05;;;22.60;99.90;;;;;;4873244;29;20439;-79
2021/06/09 06:21:49;;;;;;;1.05;1.05;;;22.70;99.90;;;;;;4867740;29;20416;-79
2021/06/09 06:24:19;;;;;;;1.05;1.00;;;23.00;99.90;;;;;;4876713;29;20531;-79
2021/06/09 06:26:46;;;;;;;1.25;1.10;;;23.10;99.90;;;;;;4861973;29;20416;-79
2021/06/09 06:29:12;;;;;;;1.10;1.10;;;23.30;99.90;;;;;;4853470;29;20413;-79
2021/06/09 06:31:37;;;;;;;1.40;1.30;;;23.30;99.90;;;;;;4837663;29;20801;-77
2021/06/09 06:34:03;;;;;;;1.20;1.20;;;23.40;99.90;;;;;;4839246;29;20453;-81
2021/06/09 06:36:29;;;;;;;1.47;1.27;;;23.50;99.90;;;;;;4864715;29;20418;-78
2021/06/09 06:38:55;;;;;;;1.17;1.17;;;23.60;99.90;;;;;;4868846;29;20489;-79
2021/06/09 06:41:21;;;;;;;1.42;1.20;;;23.80;99.90;;;;;;4848017;29;20413;-81
2021/06/09 06:43:47;;;;;;;1.90;1.50;;;24.00;99.90;;;;;;4876399;29;20481;-80
2021/06/09 06:46:17;;;;;;;1.33;1.23;;;24.10;99.90;;;;;;4863353;29;20409;-81
2021/06/09 06:48:43;;;;;;;1.35;1.25;;;24.10;99.90;;;;;;4868075;29;20416;-80
2021/06/09 06:51:10;;;;;;;1.52;1.42;;;24.20;99.90;;;;;;4859057;29;20977;-81
2021/06/09 06:53:43;;;;;;;1.40;1.30;;;24.30;99.40;;;;;;4857653;29;20443;-81
2021/06/09 06:56:12;;;;;;;1.17;1.17;;;24.30;99.90;;;;;;4849870;29;20410;-79
2021/06/09 06:58:38;;;;;;;1.20;1.20;;;24.50;99.70;;;;;;4870926;29;20450;-81
2021/06/09 07:01:04;;;;;;;1.10;1.10;;;24.70;99.70;;;;;;4842511;29;21167;-81
2021/06/09 07:03:30;;;;;;;1.45;1.33;;;24.80;98.30;;;;;;4887440;29;20416;-80
2021/06/09 07:05:57;;;;;;;1.03;1.03;;;24.80;99.00;;;;;;4846577;29;20494;-82
2021/06/09 07:08:23;;;;;;;1.00;1.00;;;24.90;98.50;;;;;;4875789;29;20416;-80
2021/06/09 07:10:51;;;;;;;1.17;1.17;;;25.10;96.20;;;;;;4876229;29;20421;-79
2021/06/09 07:13:16;;;;;;;1.42;1.33;;;25.20;96.50;;;;;;4841986;29;20935;-79
2021/06/09 07:15:42;;;;;;;1.30;1.20;;;25.40;95.60;;;;;;4879223;29;20430;-80
2021/06/09 07:18:08;;;;;;;1.30;1.20;;;25.40;95.40;;;;;;4843126;29;20451;-80
2021/06/09 07:20:34;;;;;;;1.23;1.10;;;25.30;94.90;;;;;;4873042;29;20833;-81
2021/06/09 07:22:59;;;;;;;1.10;1.10;;;25.30;92.80;;;;;;4876201;29;20424;-79
2021/06/09 07:25:26;;;;;;;1.30;1.20;;;25.60;94.40;;;;;;4876596;29;20438;-79
2021/06/09 07:27:58;;;;;;;1.25;1.15;;;25.80;94.40;;;;;;4868370;29;20408;-80
2021/06/09 07:30:28;;;;;;;1.40;1.20;;;25.90;93.20;;;;;;4871653;29;20498;-80
2021/06/09 07:32:57;;;;;;;1.45;1.35;;;26.20;93.30;;;;;;4887303;29;20455;-81
2021/06/09 07:35:24;;;;;;;1.30;1.30;;;26.20;91.50;;;;;;4890453;29;20481;-78
2021/06/09 07:37:51;;;;;;;1.13;1.13;;;26.30;91.40;;;;;;4844039;29;20788;-79
2021/06/09 07:40:21;;;;;;;1.70;1.30;;;26.60;90.80;;;;;;4892323;29;20429;-79
2021/06/09 07:42:49;;;;;;;1.35;1.25;;;26.50;86.80;;;;;;4873593;29;20453;-80
2021/06/09 07:45:16;;;;;;;1.40;1.30;;;26.70;88.50;;;;;;4842828;29;20451;-81
2021/06/09 07:47:43;;;;;;;1.20;1.20;;;26.70;90.00;;;;;;4882337;29;20446;-80
2021/06/09 07:50:12;;;;;;;1.15;1.10;;;26.80;88.60;;;;;;4874140;29;20772;-80
2021/06/09 07:52:38;;;;;;;1.30;1.20;;;26.90;86.30;;;;;;4863001;29;20456;-81
2021/06/09 07:55:04;;;;;;;1.25;1.20;;;27.00;85.60;;;;;;4864024;29;20418;-79
2021/06/09 07:57:33;;;;;;;1.30;1.20;;;26.90;85.00;;;;;;4855285;29;20416;-80
2021/06/09 08:00:03;;;;;;;1.00;1.00;;;26.90;86.30;;;;;;4871056;29;20420;-81
2021/06/09 08:02:40;;;;;;;1.67;1.38;;;27.00;84.40;;;;;;4845187;29;20598;-80
2021/06/09 08:05:06;;;;;;;1.30;1.20;;;27.10;80.20;;;;;;4876403;29;20421;-80
2021/06/09 08:07:32;;;;;;;1.10;1.10;;;27.30;80.80;;;;;;4868636;29;20404;-81
2021/06/09 08:09:58;;;;;;;0.80;0.80;;;27.50;81.50;;;;;;4872081;29;20485;-80
2021/06/09 08:12:23;;;;;;;1.10;1.00;;;27.70;79.20;;;;;;4869694;29;20587;-79
2021/06/09 08:14:51;;;;;;;1.02;1.02;;;27.70;78.00;;;;;;4876458;29;20417;-79
2021/06/09 08:17:23;;;;;;;0.90;0.90;;;27.70;73.50;;;;;;4845486;29;20431;-82
2021/06/09 08:19:49;;;;;;;1.00;1.00;;;28.00;82.70;;;;;;4862780;29;20421;-80
2021/06/09 08:22:15;;;;;;;0.85;0.85;;;28.60;77.40;;;;;;4887912;29;20408;-81
2021/06/09 08:24:40;;;;;;;1.00;1.00;;;28.70;75.10;;;;;;4883886;29;20405;-81
2021/06/09 08:27:06;;;;;;;1.00;1.00;;;28.90;75.20;;;;;;4876809;29;20414;-83
2021/06/09 08:29:38;;;;;;;1.10;1.10;;;29.10;76.70;;;;;;4871477;29;20486;-84
2021/06/09 08:32:05;;;;;;;0.90;0.90;;;29.50;73.10;;;;;;4879810;29;20444;-82
2021/06/09 08:34:30;;;;;;;1.20;1.20;;;29.30;72.70;;;;;;4870363;29;20683;-83
2021/06/09 08:36:57;;;;;;;1.30;1.20;;;29.00;72.90;;;;;;4883052;29;20420;-83
2021/06/09 08:39:25;;;;;;;1.00;1.00;;;28.90;73.90;;;;;;4884652;29;20444;-83
2021/06/09 08:41:50;;;;;;;1.10;1.00;;;29.00;73.70;;;;;;4861681;29;20412;-82
2021/06/09 08:44:16;;;;;;;1.30;1.20;;;29.00;73.30;;;;;;4857087;29;20565;-84
2021/06/09 08:46:42;;;;;;;1.00;1.00;;;29.00;72.50;;;;;;4886627;29;20476;-81
2021/06/09 08:49:08;;;;;;;1.33;1.10;;;29.00;70.10;;;;;;4881014;29;20411;-81
2021/06/09 08:51:35;;;;;;;2.40;1.13;;;28.80;71.40;;;;;;4859395;29;20423;-82
2021/06/09 08:54:03;;;;;;;1.23;1.17;;;28.80;70.80;;;;;;4884754;29;20425;-84
2021/06/09 08:56:29;;;;;;;1.10;1.10;;;28.80;70.60;;;;;;4841183;29;20417;-81
2021/06/09 08:58:54;;;;;;;1.15;1.08;;;28.80;71.80;;;;;;4887732;29;20425;-83
2021/06/09 09:01:20;;;;;;;1.00;1.00;;;29.10;72.40;;;;;;4843766;29;20559;-80
2021/06/09 09:03:48;;;;;;;1.30;1.20;;;29.10;69.40;;;;;;4877104;29;20879;-81
2021/06/09 09:06:14;;;;;;;1.40;1.30;;;29.20;70.50;;;;;;4883325;29;20445;-82
2021/06/09 09:08:40;;;;;;;1.10;1.10;;;29.30;67.30;;;;;;4879811;29;21181;-82
2021/06/09 09:11:06;;;;;;;1.10;1.10;;;29.50;69.70;;;;;;4865814;29;20405;-83
2021/06/09 09:13:32;;;;;;;1.10;1.10;;;29.50;69.20;;;;;;4880823;29;20412;-84
2021/06/09 09:15:58;;;;;;;0.95;0.95;;;29.50;70.90;;;;;;4892201;29;20412;-81
2021/06/09 09:18:40;;;;;;;1.10;1.10;;;29.70;69.00;;;;;;4879114;29;20408;-84
2021/06/09 09:21:06;;;;;;;1.30;1.20;;;30.00;70.10;;;;;;4900805;29;20434;-83
2021/06/09 09:23:34;;;;;;;1.00;1.00;;;30.20;65.30;;;;;;4889139;29;20432;-84
2021/06/09 09:26:24;;;;;;;1.10;1.10;;;30.50;66.00;;;;;;4897502;29;20416;-88
2021/06/09 09:28:49;;;;;;;0.98;0.98;;;30.50;65.30;;;;;;4876630;29;20397;-86
2021/06/09 09:31:17;;;;;;;1.00;1.00;;;30.50;65.50;;;;;;4894560;29;20409;-83
2021/06/09 09:33:43;;;;;;;1.02;1.02;;;30.70;67.60;;;;;;4877795;29;20381;-86
2021/06/09 09:36:27;;;;;;;1.17;1.17;;;30.90;63.00;;;;;;4858551;29;20465;-87
2021/06/09 09:38:57;;;;;;;1.02;1.02;;;30.70;60.50;;;;;;4909367;29;20409;-88
2021/06/09 09:41:31;;;;;;;1.10;1.10;;;30.90;65.20;;;;;;4887959;29;20465;-89
2021/06/09 09:43:57;;;;;;;1.00;1.00;;;31.10;63.70;;;;;;4892014;29;20476;-85
2021/06/09 09:46:32;;;;;;;0.90;0.90;;;31.40;64.30;;;;;;4862783;29;20472;-85
2021/06/09 09:49:06;;;;;;;3.97;1.20;;;31.50;62.50;;;;;;4887835;29;20407;-83
2021/06/09 09:51:55;;;;;;;0.90;0.90;;;31.90;60.40;;;;;;4876151;29;20396;-84
2021/06/09 09:54:31;;;;;;;0.95;0.95;;;32.20;59.90;;;;;;4851999;29;20424;-85
2021/06/09 09:56:58;;;;;;;1.00;1.00;;;32.20;56.80;;;;;;4881444;29;20436;-83
2021/06/09 09:59:26;;;;;;;1.00;1.00;;;32.20;58.80;;;;;;4879364;29;20405;-83
2021/06/09 10:01:53;;;;;;;0.90;0.90;;;32.30;55.90;;;;;;4874518;29;20493;-86
2021/06/09 10:04:22;;;;;;;1.20;1.10;;;32.40;58.60;;;;;;4874875;29;20979;-83
2021/06/09 10:06:50;;;;;;;1.02;1.02;;;32.30;56.40;;;;;;4879785;29;20479;-84
2021/06/09 10:09:23;;;;;;;1.10;1.10;;;32.50;54.20;;;;;;4882277;29;20479;-85
2021/06/09 10:11:57;;;;;;;1.08;1.08;;;32.30;56.20;;;;;;4880919;29;20469;-82
2021/06/09 10:14:29;;;;;;;0.88;0.88;;;32.70;57.30;;;;;;4837771;29;20449;-82
2021/06/09 10:17:05;;;;;;;1.30;1.10;;;33.00;55.60;;;;;;4890705;29;20484;-87
2021/06/09 10:19:36;;;;;;;1.23;1.10;;;33.10;55.10;;;;;;4879074;29;20464;-87
2021/06/09 10:22:19;;;;;;;2.60;1.10;;;33.30;51.80;;;;;;4843478;29;20491;-85
2021/06/09 10:24:45;;;;;;;0.90;0.90;;;33.30;50.60;;;;;;4863797;29;20426;-84
2021/06/09 10:27:11;;;;;;;2.67;1.00;;;33.40;54.60;;;;;;4876588;29;20445;-84
2021/06/09 10:29:36;;;;;;;1.10;0.90;;;33.90;52.10;;;;;;4875993;29;20445;-84
2021/06/09 10:32:07;;;;;;;0.90;0.90;;;34.10;52.30;;;;;;4869532;29;20432;-88
2021/06/09 10:34:34;;;;;;;0.93;0.93;;;34.50;50.70;;;;;;4853864;29;20425;-88
2021/06/09 10:37:00;;;;;;;0.82;0.82;;;33.00;47.30;;;;;;4874905;29;20420;-84
2021/06/09 10:39:28;;;;;;;0.98;0.98;;;33.60;51.40;;;;;;4873763;29;20420;-85
2021/06/09 10:41:56;;;;;;;2.75;1.25;;;33.90;52.00;;;;;;4889818;29;20475;-84
2021/06/09 10:44:24;;;;;;;0.80;0.80;;;34.20;51.70;;;;;;4862544;29;20427;-83
2021/06/09 10:46:55;;;;;;;0.80;0.80;;;34.60;48.50;;;;;;4891616;29;20412;-83
2021/06/09 10:49:21;;;;;;;1.25;1.15;;;35.10;50.30;;;;;;4874330;29;20412;-85
2021/06/09 10:51:50;;;;;;;1.10;1.02;;;35.20;47.00;;;;;;4868688;29;20421;-84
2021/06/09 10:54:16;;;;;;;1.10;1.00;;;35.80;48.40;;;;;;4896545;29;20416;-85
2021/06/09 10:56:45;;;;;;;0.80;0.80;;;35.80;47.40;;;;;;4882858;29;20496;-83
2021/06/09 10:59:15;;;;;;;0.80;0.80;;;34.60;46.80;;;;;;4849757;29;20417;-83
2021/06/09 11:01:41;;;;;;;0.98;0.98;;;34.60;46.90;;;;;;4887583;29;20522;-83
2021/06/09 11:04:07;;;;;;;1.00;1.00;;;34.70;44.90;;;;;;4859870;29;20444;-83
2021/06/09 11:06:37;;;;;;;0.90;0.90;;;34.60;45.30;;;;;;4875872;29;20415;-82
2021/06/09 11:09:16;;;;;;;0.80;0.80;;;34.20;45.10;;;;;;4879261;29;20417;-81
2021/06/09 11:11:42;;;;;;;1.00;1.00;;;34.50;45.30;;;;;;4904528;29;20424;-85
2021/06/09 11:14:24;;;;;;;0.75;0.75;;;34.80;44.70;;;;;;4846459;29;20411;-82
2021/06/09 11:16:54;;;;;;;1.00;1.00;;;35.10;44.60;;;;;;4879075;29;20431;-81
2021/06/09 11:19:34;;;;;;;0.70;0.70;;;35.40;43.30;;;;;;4875106;29;20413;-82
2021/06/09 11:22:20;;;;;;;0.95;0.95;;;34.90;44.60;;;;;;4879705;29;20442;-84
2021/06/09 11:25:17;;;;;;;1.02;1.00;;;35.30;45.60;;;;;;4890083;29;20845;-83
2021/06/09 11:27:52;;;;;;;0.90;0.90;;;36.20;44.10;;;;;;4880915;29;20443;-84
2021/06/09 11:30:24;;;;;;;0.82;0.82;;;36.90;41.40;;;;;;4864251;29;20531;-85
2021/06/09 11:32:51;;;;;;;0.90;0.90;;;37.30;40.00;;;;;;4904405;29;20522;-82
2021/06/09 11:35:21;;;;;;;0.80;0.80;;;37.00;41.80;;;;;;4849163;29;20814;-84
2021/06/09 11:38:11;;;;;;;2.40;1.00;;;37.20;40.40;;;;;;4871746;29;20424;-85
2021/06/09 11:41:00;;;;;;;0.75;0.75;;;37.10;38.70;;;;;;4880103;29;20916;-85
2021/06/09 11:43:28;;;;;;;0.70;0.70;;;36.70;39.40;;;;;;4860406;29;20413;-84
2021/06/09 11:46:01;;;;;;;1.00;0.77;;;36.60;39.00;;;;;;4880546;29;20469;-85
2021/06/09 11:48:28;;;;;;;0.80;0.80;;;36.70;39.10;;;;;;4887559;29;20400;-84
2021/06/09 11:51:17;;;;;;;0.70;0.70;;;36.50;40.10;;;;;;4863523;29;20413;-83
2021/06/09 11:53:45;;;;;;;0.80;0.80;;;36.40;41.50;;;;;;4866573;29;20912;-83
2021/06/09 11:56:16;;;;;;;1.05;1.00;;;35.80;40.30;;;;;;4878210;29;20404;-85
2021/06/09 11:58:43;;;;;;;0.82;0.82;;;35.50;40.10;;;;;;4865697;29;20458;-79
2021/06/09 12:01:10;;;;;;;0.90;0.90;;;35.10;41.70;;;;;;4844477;29;20412;-86
2021/06/09 12:03:45;;;;;;;0.80;0.80;;;34.10;40.10;;;;;;4860472;29;20532;-84
2021/06/09 12:06:10;;;;;;;0.70;0.70;;;33.80;43.70;;;;;;4861966;29;20434;-83
2021/06/09 12:08:36;;;;;;;1.02;0.93;;;34.60;42.20;;;;;;4908487;29;20827;-86
2021/06/09 12:11:02;;;;;;;0.90;0.90;;;34.70;42.30;;;;;;4845134;29;21154;-86
2021/06/09 12:13:27;;;;;;;0.70;0.70;;;35.40;42.70;;;;;;4862321;29;20456;-84
2021/06/09 12:16:06;;;;;;;0.77;0.77;;;36.00;42.50;;;;;;4876324;29;21038;-83
2021/06/09 12:18:32;;;;;;;0.80;0.80;;;36.30;41.20;;;;;;4877483;29;20412;-82
2021/06/09 12:21:02;;;;;;;0.70;0.70;;;36.00;39.70;;;;;;4874128;29;20452;-83
2021/06/09 12:23:28;;;;;;;0.80;0.80;;;35.50;39.30;;;;;;4872149;29;20422;-85
2021/06/09 12:25:54;;;;;;;0.80;0.80;;;35.60;39.80;;;;;;4877247;29;20438;-84
2021/06/09 12:28:20;;;;;;;0.70;0.70;;;35.80;39.80;;;;;;4876676;29;20556;-84
2021/06/09 12:30:52;;;;;;;0.70;0.70;;;36.20;41.00;;;;;;4845610;29;20432;-84
2021/06/09 12:33:18;;;;;;;0.90;0.90;;;36.60;39.70;;;;;;4876024;29;20481;-84
2021/06/09 12:35:43;;;;;;;1.10;0.80;;;37.00;40.30;;;;;;4862155;29;20419;-82
2021/06/09 12:38:10;;;;;;;0.80;0.73;;;37.00;38.70;;;;;;4877390;29;20922;-85
2021/06/09 12:40:38;;;;;;;0.80;0.80;;;37.00;38.80;;;;;;4891527;29;20431;-85
2021/06/09 12:43:10;;;;;;;0.90;0.90;;;37.50;38.00;;;;;;4878240;29;20401;-84
2021/06/09 12:45:41;;;;;;;0.80;0.80;;;38.40;37.70;;;;;;4878042;29;20392;-85
2021/06/09 12:48:09;;;;;;;0.73;0.73;;;38.50;40.50;;;;;;4846982;29;20456;-84
2021/06/09 12:50:39;;;;;;;0.90;0.90;;;38.70;38.60;;;;;;4881042;29;20392;-86
2021/06/09 12:53:24;;;;;;;0.80;0.80;;;38.70;35.80;;;;;;4850469;29;20503;-86
2021/06/09 12:55:51;;;;;;;1.50;0.90;;;38.20;35.10;;;;;;4877104;29;20551;-85
2021/06/09 12:58:22;;;;;;;1.05;0.80;;;38.00;35.40;;;;;;4849300;29;20412;-85